createdAt,value
2023-05-29T00:00:01.410Z,12.30
2023-05-29T00:02:28.387Z,12.30
2023-05-29T00:04:55.377Z,12.30
2023-05-29T00:07:22.244Z,12.30
2023-05-29T00:09:49.120Z,12.20
2023-05-29T00:12:16.091Z,12.10
2023-05-29T00:14:42.801Z,12.10
2023-05-29T00:17:10.456Z,12.10
2023-05-29T00:19:37.235Z,12.00
2023-05-29T00:22:04.359Z,12.00
2023-05-29T00:24:31.214Z,11.90
2023-05-29T00:27:00.002Z,11.90
2023-05-29T00:29:27.027Z,11.90
2023-05-29T00:31:54.597Z,11.90
2023-05-29T00:34:23.500Z,11.90
2023-05-29T00:36:50.644Z,11.90
2023-05-29T00:39:17.820Z,11.90
2023-05-29T00:41:44.656Z,11.90
2023-05-29T00:44:11.584Z,11.80
2023-05-29T00:46:38.450Z,11.70
2023-05-29T00:49:06.510Z,11.70
2023-05-29T00:51:33.563Z,11.60
2023-05-29T00:54:01.248Z,11.50
2023-05-29T00:56:28.140Z,11.60
2023-05-29T00:58:55.075Z,11.50
2023-05-29T01:01:22.729Z,11.50
2023-05-29T01:03:50.268Z,11.40
2023-05-29T01:06:17.358Z,11.30
2023-05-29T01:08:44.203Z,11.40
2023-05-29T01:11:37.873Z,11.30
2023-05-29T01:14:10.903Z,11.40
2023-05-29T01:16:53.065Z,11.40
2023-05-29T01:19:39.708Z,11.40
2023-05-29T01:22:21.481Z,11.40
2023-05-29T01:25:18.867Z,11.40
2023-05-29T01:27:48.632Z,11.30
2023-05-29T01:30:16.608Z,11.30
2023-05-29T01:32:44.792Z,11.30
2023-05-29T01:35:11.638Z,11.30
2023-05-29T01:37:38.359Z,11.20
2023-05-29T01:40:05.717Z,11.10
2023-05-29T01:42:33.206Z,11.20
2023-05-29T01:45:01.259Z,11.20
2023-05-29T01:47:28.649Z,11.10
2023-05-29T01:49:57.045Z,11.10
2023-05-29T01:52:23.925Z,11.10
2023-05-29T01:54:50.789Z,11.10
2023-05-29T01:57:18.331Z,11.00
2023-05-29T01:59:45.489Z,11.00
2023-05-29T02:02:13.392Z,11.10
2023-05-29T02:04:40.303Z,11.10
2023-05-29T02:07:07.768Z,11.00
2023-05-29T02:09:36.244Z,11.00
2023-05-29T02:12:03.117Z,11.00
2023-05-29T02:14:30.179Z,11.00
2023-05-29T02:16:58.383Z,11.00
2023-05-29T02:19:26.569Z,10.90
2023-05-29T02:21:53.426Z,10.90
2023-05-29T02:24:20.189Z,11.00
2023-05-29T02:26:49.687Z,11.00
2023-05-29T02:29:16.711Z,10.90
2023-05-29T02:31:43.493Z,10.90
2023-05-29T02:34:10.379Z,10.80
2023-05-29T02:36:38.343Z,10.90
2023-05-29T02:39:08.008Z,10.90
2023-05-29T02:41:34.819Z,10.90
2023-05-29T02:44:01.623Z,10.90
2023-05-29T02:46:28.437Z,11.00
2023-05-29T02:48:55.243Z,11.00
2023-05-29T02:51:22.020Z,10.90
2023-05-29T02:53:49.620Z,10.90
2023-05-29T02:56:16.990Z,10.90
2023-05-29T02:58:43.934Z,10.90
2023-05-29T03:01:10.836Z,10.90
2023-05-29T03:03:37.736Z,11.00
2023-05-29T03:06:04.847Z,10.90
2023-05-29T03:08:32.464Z,10.90
2023-05-29T03:10:59.301Z,10.80
2023-05-29T03:13:26.033Z,10.80
2023-05-29T03:15:57.851Z,10.80
2023-05-29T03:18:24.836Z,10.80
2023-05-29T03:20:51.852Z,10.80
2023-05-29T03:23:18.644Z,10.80
2023-05-29T03:25:45.583Z,10.80
2023-05-29T03:28:12.288Z,10.80
2023-05-29T03:30:39.013Z,10.80
2023-05-29T03:33:06.018Z,10.90
2023-05-29T03:35:32.863Z,11.00
2023-05-29T03:37:59.800Z,10.90
2023-05-29T03:40:26.743Z,10.90
2023-05-29T03:42:53.482Z,10.90
2023-05-29T03:45:20.247Z,10.90
2023-05-29T03:47:47.063Z,10.90
2023-05-29T03:50:16.155Z,10.80
2023-05-29T03:52:43.726Z,10.80
2023-05-29T03:55:15.641Z,10.80
2023-05-29T03:57:42.857Z,10.90
2023-05-29T04:00:11.520Z,11.00
2023-05-29T04:02:39.488Z,10.90
2023-05-29T04:05:14.167Z,10.90
2023-05-29T04:07:41.271Z,10.90
2023-05-29T04:10:08.618Z,10.90
2023-05-29T04:12:35.689Z,10.90
2023-05-29T04:15:02.611Z,10.90
2023-05-29T04:17:29.397Z,10.90
2023-05-29T04:19:56.196Z,10.90
2023-05-29T04:22:23.159Z,10.90
2023-05-29T04:24:49.983Z,11.00
2023-05-29T04:27:16.728Z,11.10
2023-05-29T04:29:43.653Z,11.10
2023-05-29T04:32:12.209Z,11.00
2023-05-29T04:34:45.127Z,11.00
2023-05-29T04:37:11.974Z,10.90
2023-05-29T04:39:38.750Z,11.00
2023-05-29T04:42:06.387Z,11.00
2023-05-29T04:44:34.043Z,11.00
2023-05-29T04:47:04.067Z,11.00
2023-05-29T04:49:30.924Z,11.00
2023-05-29T04:52:01.548Z,10.90
2023-05-29T04:54:28.827Z,10.90
2023-05-29T04:56:55.900Z,10.90
2023-05-29T04:59:22.720Z,11.00
2023-05-29T05:01:50.105Z,11.00
2023-05-29T05:04:16.978Z,11.00
2023-05-29T05:06:45.031Z,11.10
2023-05-29T05:09:12.076Z,11.10
2023-05-29T05:11:38.956Z,11.10
2023-05-29T05:14:05.796Z,11.10
2023-05-29T05:16:34.568Z,11.10
2023-05-29T05:19:01.433Z,11.00
2023-05-29T05:21:32.065Z,11.10
2023-05-29T05:23:59.254Z,11.10
2023-05-29T05:26:27.832Z,11.10
2023-05-29T05:28:54.934Z,11.10
2023-05-29T05:31:22.186Z,11.20
2023-05-29T05:33:48.986Z,11.30
2023-05-29T05:36:16.082Z,11.40
2023-05-29T05:38:42.822Z,11.20
2023-05-29T05:41:09.697Z,11.30
2023-05-29T05:43:36.465Z,11.30
2023-05-29T05:46:03.317Z,11.40
2023-05-29T05:48:30.061Z,11.40
2023-05-29T05:50:57.382Z,11.30
2023-05-29T05:53:24.497Z,11.40
2023-05-29T05:55:52.169Z,11.40
2023-05-29T05:58:18.902Z,11.50
2023-05-29T06:00:45.643Z,11.50
2023-05-29T06:03:13.179Z,11.60
2023-05-29T06:05:42.008Z,11.60
2023-05-29T06:08:09.395Z,11.70
2023-05-29T06:10:37.215Z,11.90
2023-05-29T06:13:03.956Z,11.90
2023-05-29T06:15:30.891Z,12.00
2023-05-29T06:17:57.644Z,12.10
2023-05-29T06:20:24.546Z,12.20
2023-05-29T06:22:51.660Z,12.30
2023-05-29T06:25:20.556Z,12.30
2023-05-29T06:27:47.300Z,12.50
2023-05-29T06:30:14.517Z,13.00
2023-05-29T06:32:41.515Z,13.20
2023-05-29T06:35:08.518Z,13.30
2023-05-29T06:37:35.329Z,13.50
2023-05-29T06:40:02.123Z,13.60
2023-05-29T06:42:28.835Z,14.00
2023-05-29T06:44:55.604Z,14.20
2023-05-29T06:47:22.371Z,15.00
2023-05-29T06:49:49.157Z,15.60
2023-05-29T06:52:16.002Z,15.40
2023-05-29T06:54:43.316Z,15.30
2023-05-29T06:57:11.413Z,15.40
2023-05-29T06:59:38.938Z,15.30
2023-05-29T07:02:06.673Z,15.30
2023-05-29T07:04:33.513Z,15.40
2023-05-29T07:07:00.536Z,15.50
2023-05-29T07:09:28.613Z,15.60
2023-05-29T07:11:56.195Z,15.30
2023-05-29T07:14:22.902Z,15.30
2023-05-29T07:16:49.916Z,15.50
2023-05-29T07:19:21.678Z,15.70
2023-05-29T07:21:49.608Z,15.50
2023-05-29T07:24:16.738Z,15.40
2023-05-29T07:26:43.657Z,15.40
2023-05-29T07:29:11.722Z,15.30
2023-05-29T07:31:41.377Z,15.20
2023-05-29T07:34:08.357Z,15.10
2023-05-29T07:36:35.240Z,15.10
2023-05-29T07:39:02.301Z,15.20
2023-05-29T07:41:29.233Z,15.40
2023-05-29T07:43:57.112Z,15.60
2023-05-29T07:46:24.022Z,15.60
2023-05-29T07:48:50.942Z,15.80
2023-05-29T07:51:18.602Z,16.00
2023-05-29T07:53:47.273Z,16.80
2023-05-29T07:56:14.675Z,17.50
2023-05-29T07:58:42.805Z,18.10
2023-05-29T08:01:09.659Z,18.80
2023-05-29T08:03:36.866Z,19.20
2023-05-29T08:06:04.232Z,19.30
2023-05-29T08:08:31.412Z,19.70
2023-05-29T08:10:58.541Z,20.40
2023-05-29T08:13:25.388Z,20.50
2023-05-29T08:15:52.305Z,20.20
2023-05-29T08:18:19.379Z,20.00
2023-05-29T08:20:46.330Z,20.40
2023-05-29T08:23:13.138Z,20.70
2023-05-29T08:25:40.048Z,20.90
2023-05-29T08:28:06.873Z,21.30
2023-05-29T08:30:33.802Z,21.20
2023-05-29T08:33:00.635Z,21.10
2023-05-29T08:35:27.529Z,20.40
2023-05-29T08:37:54.325Z,20.50
2023-05-29T08:40:21.161Z,20.10
2023-05-29T08:43:23.940Z,20.10
2023-05-29T08:46:01.214Z,19.60
2023-05-29T08:48:30.037Z,19.50
2023-05-29T08:50:59.101Z,19.40
2023-05-29T08:53:26.999Z,19.50
2023-05-29T08:55:54.712Z,19.10
2023-05-29T08:58:22.654Z,19.00
2023-05-29T09:00:50.875Z,18.90
2023-05-29T09:03:18.781Z,18.80
2023-05-29T09:05:46.498Z,18.90
2023-05-29T09:08:14.154Z,18.70
2023-05-29T09:10:42.805Z,18.80
2023-05-29T09:13:11.132Z,19.00
2023-05-29T09:15:41.325Z,18.60
2023-05-29T09:18:09.925Z,18.60
2023-05-29T09:20:37.506Z,18.60
2023-05-29T09:23:06.322Z,18.70
2023-05-29T09:25:36.566Z,18.90
2023-05-29T09:28:08.526Z,19.00
2023-05-29T09:30:46.795Z,18.90
2023-05-29T09:33:15.187Z,18.70
2023-05-29T09:35:46.269Z,18.80
2023-05-29T09:38:28.943Z,18.80
2023-05-29T09:41:06.342Z,19.00
2023-05-29T09:43:34.438Z,18.80
2023-05-29T09:46:03.343Z,18.60
2023-05-29T09:48:31.224Z,18.70
2023-05-29T09:50:59.461Z,18.60
2023-05-29T09:53:29.653Z,18.30
2023-05-29T09:55:57.500Z,18.30
2023-05-29T09:58:26.505Z,18.30
2023-05-29T10:01:04.369Z,18.40
2023-05-29T10:03:36.186Z,18.50
2023-05-29T10:06:05.384Z,18.80
2023-05-29T10:08:35.054Z,18.50
2023-05-29T10:11:04.396Z,18.60
2023-05-29T10:13:37.943Z,18.80
2023-05-29T10:16:08.374Z,18.90
2023-05-29T10:18:46.228Z,18.90
2023-05-29T10:21:13.943Z,18.90
2023-05-29T10:23:43.564Z,18.90
2023-05-29T10:26:32.360Z,18.90
2023-05-29T10:29:28.089Z,19.00
2023-05-29T10:32:25.998Z,19.00
2023-05-29T10:35:01.933Z,18.90
2023-05-29T10:37:37.869Z,19.00
2023-05-29T10:40:15.953Z,18.90
2023-05-29T10:42:50.443Z,19.00
2023-05-29T10:45:40.788Z,19.00
2023-05-29T10:48:13.898Z,19.00
2023-05-29T10:50:53.002Z,19.10
2023-05-29T10:53:25.739Z,19.30
2023-05-29T10:55:53.589Z,19.40
2023-05-29T10:58:24.283Z,19.40
2023-05-29T11:00:51.724Z,19.20
2023-05-29T11:03:35.370Z,19.00
2023-05-29T11:06:21.026Z,19.10
2023-05-29T11:08:55.728Z,19.10
2023-05-29T11:11:28.508Z,19.00
2023-05-29T11:13:57.733Z,18.80
2023-05-29T11:16:33.487Z,18.70
2023-05-29T11:19:11.265Z,18.60
2023-05-29T11:21:56.332Z,18.60
2023-05-29T11:24:28.171Z,18.60
2023-05-29T11:26:57.162Z,18.60
2023-05-29T11:29:25.254Z,18.80
2023-05-29T11:32:03.922Z,18.70
2023-05-29T11:34:32.143Z,18.80
2023-05-29T11:37:04.193Z,18.90
2023-05-29T11:39:32.234Z,19.00
2023-05-29T11:41:59.110Z,19.10
2023-05-29T11:44:27.373Z,19.20
2023-05-29T11:47:08.438Z,19.30
2023-05-29T11:49:38.266Z,19.20
2023-05-29T11:54:48.768Z,18.90
2023-05-29T11:57:22.983Z,19.00
2023-05-29T11:59:53.642Z,19.00
2023-05-29T12:02:21.158Z,18.90
2023-05-29T12:05:05.542Z,18.90
2023-05-29T12:07:32.472Z,18.90
2023-05-29T12:10:14.448Z,18.90
2023-05-29T12:12:41.399Z,18.80
2023-05-29T12:15:10.203Z,19.00
2023-05-29T12:17:37.722Z,19.10
2023-05-29T12:20:08.122Z,19.30
2023-05-29T12:22:36.772Z,19.30
2023-05-29T12:25:14.792Z,19.40
2023-05-29T12:27:51.782Z,19.30
2023-05-29T12:30:31.382Z,19.10
2023-05-29T12:33:01.455Z,19.10
2023-05-29T12:35:30.299Z,19.10
2023-05-29T12:37:59.675Z,19.10
2023-05-29T12:40:31.373Z,19.00
2023-05-29T12:43:07.029Z,18.90
2023-05-29T12:45:34.885Z,18.90
2023-05-29T12:48:06.897Z,18.80
2023-05-29T12:50:40.977Z,18.80
2023-05-29T12:53:08.516Z,18.90
2023-05-29T12:55:38.072Z,18.90
2023-05-29T12:58:05.983Z,19.00
2023-05-29T13:00:34.898Z,19.10
2023-05-29T13:03:02.350Z,19.10
2023-05-29T13:05:29.252Z,18.90
2023-05-29T13:07:56.164Z,18.90
2023-05-29T13:10:23.480Z,18.80
2023-05-29T13:12:55.815Z,18.80
2023-05-29T13:15:24.292Z,18.80
2023-05-29T13:17:52.060Z,18.80
2023-05-29T13:20:19.557Z,18.70
2023-05-29T13:22:48.876Z,18.70
2023-05-29T13:25:17.489Z,18.70
2023-05-29T13:27:46.829Z,18.80
2023-05-29T13:30:15.198Z,18.90
2023-05-29T13:32:42.965Z,18.80
2023-05-29T13:35:09.958Z,18.80
2023-05-29T13:37:37.868Z,18.80
2023-05-29T13:40:06.789Z,18.80
2023-05-29T13:42:34.586Z,18.80
2023-05-29T13:45:02.149Z,18.70
2023-05-29T13:47:33.535Z,18.70
2023-05-29T13:50:00.915Z,18.80
2023-05-29T13:52:28.217Z,18.70
2023-05-29T13:54:55.149Z,18.70
2023-05-29T13:57:22.090Z,18.60
2023-05-29T13:59:49.011Z,18.60
2023-05-29T14:02:15.801Z,18.60
2023-05-29T14:04:44.438Z,18.60
2023-05-29T14:07:11.590Z,18.60
2023-05-29T14:09:38.430Z,18.60
2023-05-29T14:12:06.181Z,18.70
2023-05-29T14:14:34.911Z,18.70
2023-05-29T14:17:01.837Z,18.70
2023-05-29T14:19:28.610Z,18.70
2023-05-29T14:21:55.422Z,18.80
2023-05-29T14:24:22.558Z,18.80
2023-05-29T14:26:50.125Z,18.70
2023-05-29T14:29:16.880Z,18.60
2023-05-29T14:31:44.901Z,18.70
2023-05-29T14:34:13.004Z,18.60
2023-05-29T14:36:41.036Z,18.60
2023-05-29T14:39:08.130Z,18.70
2023-05-29T14:41:36.229Z,18.70
2023-05-29T14:44:03.765Z,18.80
2023-05-29T14:46:33.024Z,18.70
2023-05-29T14:49:02.778Z,18.80
2023-05-29T14:51:29.713Z,18.70
2023-05-29T14:53:56.697Z,18.70
2023-05-29T14:56:23.622Z,18.80
2023-05-29T14:58:50.728Z,18.70
2023-05-29T15:01:18.386Z,18.70
2023-05-29T15:03:45.426Z,18.70
2023-05-29T15:06:15.584Z,18.70
2023-05-29T15:08:44.672Z,18.80
2023-05-29T15:11:16.659Z,18.80
2023-05-29T15:13:43.593Z,18.80
2023-05-29T15:16:10.878Z,18.80
2023-05-29T15:18:37.904Z,18.80
2023-05-29T15:21:05.689Z,18.80
2023-05-29T15:23:35.118Z,18.80
2023-05-29T15:26:04.383Z,18.80
2023-05-29T15:28:31.611Z,18.80
2023-05-29T15:30:58.814Z,18.70
2023-05-29T15:33:26.424Z,18.70
2023-05-29T15:35:54.311Z,18.80
2023-05-29T15:38:21.342Z,18.80
2023-05-29T15:40:48.127Z,18.80
2023-05-29T15:43:15.124Z,18.80
2023-05-29T15:45:44.108Z,18.80
2023-05-29T15:48:11.076Z,18.80
2023-05-29T15:50:37.990Z,18.80
2023-05-29T15:53:04.732Z,18.90
2023-05-29T15:55:31.502Z,18.80
2023-05-29T15:57:58.382Z,18.80
2023-05-29T16:00:25.391Z,18.80
2023-05-29T16:02:52.367Z,18.80
2023-05-29T16:05:19.404Z,18.80
2023-05-29T16:07:49.078Z,18.80
2023-05-29T16:10:17.212Z,18.80
2023-05-29T16:12:49.952Z,18.80
2023-05-29T16:15:18.166Z,18.80
2023-05-29T16:17:45.221Z,18.80
2023-05-29T16:20:12.974Z,18.80
2023-05-29T16:22:42.347Z,18.80
2023-05-29T16:25:10.253Z,18.80
2023-05-29T16:27:37.628Z,18.70
2023-05-29T16:30:05.830Z,18.70
2023-05-29T16:32:32.990Z,18.70
2023-05-29T16:35:00.214Z,18.60
2023-05-29T16:37:27.858Z,18.60
2023-05-29T16:39:55.014Z,18.60
2023-05-29T16:42:21.925Z,18.60
2023-05-29T16:44:51.352Z,18.60
2023-05-29T16:47:20.002Z,18.60
2023-05-29T16:49:46.970Z,18.60
2023-05-29T16:52:15.695Z,18.60
2023-05-29T16:54:43.765Z,18.60
2023-05-29T16:57:10.992Z,18.50
2023-05-29T16:59:38.932Z,18.50
2023-05-29T17:02:07.333Z,18.50
2023-05-29T17:04:36.810Z,18.50
2023-05-29T17:07:04.388Z,18.40
2023-05-29T17:09:31.525Z,18.40
2023-05-29T17:11:58.807Z,18.40
2023-05-29T17:14:25.899Z,18.30
2023-05-29T17:16:53.003Z,18.30
2023-05-29T17:19:20.731Z,18.20
2023-05-29T17:21:48.465Z,18.20
2023-05-29T17:24:16.461Z,18.10
2023-05-29T17:26:43.778Z,18.10
2023-05-29T17:29:10.738Z,18.00
2023-05-29T17:31:37.699Z,18.00
2023-05-29T17:34:04.670Z,18.00
2023-05-29T17:36:31.487Z,17.90
2023-05-29T17:38:58.325Z,17.90
2023-05-29T17:41:25.178Z,17.90
2023-05-29T17:49:33.041Z,17.80
2023-05-29T17:52:00.396Z,17.80
2023-05-29T17:54:27.347Z,17.70
2023-05-29T17:56:54.250Z,17.70
2023-05-29T17:59:21.308Z,17.60
2023-05-29T18:01:48.198Z,17.60
2023-05-29T18:04:14.973Z,17.50
2023-05-29T18:06:41.741Z,17.50
2023-05-29T18:09:10.537Z,17.40
2023-05-29T18:11:39.416Z,17.40
2023-05-29T18:14:06.993Z,17.40
2023-05-29T18:16:37.780Z,17.20
2023-05-29T18:19:05.384Z,17.20
2023-05-29T18:21:32.218Z,17.20
2023-05-29T18:23:58.945Z,17.10
2023-05-29T18:26:26.724Z,17.00
2023-05-29T18:28:53.466Z,17.00
2023-05-29T18:31:20.737Z,17.00
2023-05-29T18:33:48.488Z,16.90
2023-05-29T18:36:15.820Z,16.90
2023-05-29T18:38:42.680Z,16.80
2023-05-29T18:41:09.733Z,16.70
2023-05-29T18:43:36.570Z,16.70
2023-05-29T18:46:03.775Z,16.60
2023-05-29T18:48:31.399Z,16.60
2023-05-29T18:51:00.599Z,16.60
2023-05-29T18:53:27.321Z,16.50
2023-05-29T18:55:54.163Z,16.50
2023-05-29T18:58:21.590Z,16.40
2023-05-29T19:00:48.351Z,16.30
2023-05-29T19:03:15.322Z,16.30
2023-05-29T19:05:44.284Z,16.20
2023-05-29T19:08:11.657Z,16.20
2023-05-29T19:10:38.605Z,16.10
2023-05-29T19:13:05.806Z,16.10
2023-05-29T19:15:32.599Z,16.00
2023-05-29T19:17:59.626Z,15.90
2023-05-29T19:20:26.451Z,15.90
2023-05-29T19:22:54.069Z,15.80
2023-05-29T19:25:21.149Z,15.70
2023-05-29T19:27:48.198Z,15.70
2023-05-29T19:30:19.548Z,15.60
2023-05-29T19:32:46.443Z,15.50
2023-05-29T19:35:14.067Z,15.50
2023-05-29T19:37:41.288Z,15.50
2023-05-29T19:40:08.641Z,15.40
2023-05-29T19:42:35.366Z,15.40
2023-05-29T19:45:02.293Z,15.30
2023-05-29T19:47:29.456Z,15.30
2023-05-29T19:49:57.557Z,15.20
2023-05-29T19:52:24.292Z,15.20
2023-05-29T19:54:51.002Z,15.10
2023-05-29T19:57:17.779Z,15.10
2023-05-29T19:59:49.463Z,15.00
2023-05-29T20:02:16.491Z,15.00
2023-05-29T20:04:43.528Z,15.00
2023-05-29T20:07:10.225Z,15.00
2023-05-29T20:09:36.973Z,14.90
2023-05-29T20:12:04.065Z,14.90
2023-05-29T20:14:30.774Z,14.80
2023-05-29T20:16:57.649Z,14.80
2023-05-29T20:19:25.195Z,14.70
2023-05-29T20:21:52.004Z,14.70
2023-05-29T20:24:18.750Z,14.70
2023-05-29T20:26:46.302Z,14.60
2023-05-29T20:29:13.057Z,14.60
2023-05-29T20:31:40.209Z,14.60
2023-05-29T20:34:07.175Z,14.50
2023-05-29T20:36:35.015Z,14.50
2023-05-29T20:39:07.539Z,14.50
2023-05-29T20:41:39.562Z,14.40
2023-05-29T20:44:09.483Z,14.40
2023-05-29T20:46:39.443Z,14.40
2023-05-29T20:49:06.905Z,14.30
2023-05-29T20:51:34.557Z,14.30
2023-05-29T20:54:03.134Z,14.20
2023-05-29T20:56:29.930Z,14.10
2023-05-29T20:58:56.616Z,14.10
2023-05-29T21:01:23.359Z,14.10
2023-05-29T21:03:50.299Z,14.00
2023-05-29T21:06:17.628Z,14.00
2023-05-29T21:08:45.090Z,13.90
2023-05-29T21:11:12.008Z,13.90
2023-05-29T21:13:40.728Z,13.80
2023-05-29T21:16:08.218Z,13.70
2023-05-29T21:18:35.171Z,13.70
2023-05-29T21:21:02.323Z,13.60
2023-05-29T21:23:29.718Z,13.50
2023-05-29T21:25:59.681Z,13.40
2023-05-29T21:28:27.130Z,13.30
2023-05-29T21:30:54.148Z,13.30
2023-05-29T21:33:21.278Z,13.20
2023-05-29T21:35:47.967Z,13.20
2023-05-29T21:38:14.618Z,13.20
2023-05-29T21:40:41.516Z,13.10
2023-05-29T21:43:08.232Z,13.00
2023-05-29T21:45:35.137Z,13.00
2023-05-29T21:48:01.960Z,13.00
2023-05-29T21:50:32.134Z,12.90
2023-05-29T21:52:59.251Z,12.90
2023-05-29T21:55:26.094Z,12.80
2023-05-29T21:57:52.795Z,12.80
2023-05-29T22:00:21.395Z,12.70
2023-05-29T22:02:48.126Z,12.70
2023-05-29T22:05:14.851Z,12.70
2023-05-29T22:07:41.603Z,12.60
2023-05-29T22:10:10.066Z,12.60
2023-05-29T22:12:39.576Z,12.50
2023-05-29T22:15:06.945Z,12.50
2023-05-29T22:17:34.165Z,12.40
2023-05-29T22:20:00.840Z,12.40
2023-05-29T22:22:28.356Z,12.40
2023-05-29T22:24:55.247Z,12.30
2023-05-29T22:27:21.986Z,12.30
2023-05-29T22:29:48.690Z,12.20
2023-05-29T22:32:15.733Z,12.20
2023-05-29T22:34:42.982Z,12.20
2023-05-29T22:37:10.049Z,12.10
2023-05-29T22:39:37.040Z,12.10
2023-05-29T22:42:04.162Z,12.10
2023-05-29T22:44:31.929Z,12.00
2023-05-29T22:46:58.829Z,12.00
2023-05-29T22:49:25.596Z,12.00
2023-05-29T22:51:52.352Z,11.90
2023-05-29T22:54:19.090Z,11.90
2023-05-29T22:56:46.087Z,11.80
2023-05-29T22:59:13.356Z,11.80
2023-05-29T23:01:41.176Z,11.70
2023-05-29T23:04:07.999Z,11.70
2023-05-29T23:06:34.813Z,11.60
2023-05-29T23:09:05.411Z,11.60
2023-05-29T23:11:32.214Z,11.60
2023-05-29T23:13:59.019Z,11.50
2023-05-29T23:16:25.799Z,11.50
2023-05-29T23:18:52.761Z,11.40
2023-05-29T23:21:21.127Z,11.40
2023-05-29T23:23:49.857Z,11.40
2023-05-29T23:26:16.560Z,11.40
2023-05-29T23:28:43.296Z,11.40
2023-05-29T23:31:10.727Z,11.30
2023-05-29T23:33:37.411Z,11.30
2023-05-29T23:36:05.411Z,11.30
2023-05-29T23:38:32.191Z,11.20
2023-05-29T23:40:59.085Z,11.20
2023-05-29T23:43:26.016Z,11.20
2023-05-29T23:45:52.969Z,11.20
2023-05-29T23:48:19.910Z,11.20
2023-05-29T23:50:46.700Z,11.10
2023-05-29T23:53:13.418Z,11.10
2023-05-29T23:55:40.166Z,11.10
2023-05-29T23:58:07.515Z,11.00
